createdAt,value
2023-02-06T00:01:31.203Z,4.90
2023-02-06T00:03:58.984Z,4.90
2023-02-06T00:06:26.811Z,4.90
2023-02-06T00:08:55.978Z,4.90
2023-02-06T00:11:24.368Z,4.90
2023-02-06T00:13:52.656Z,4.90
2023-02-06T00:16:23.518Z,4.90
2023-02-06T00:18:52.624Z,4.90
2023-02-06T00:21:21.966Z,4.80
2023-02-06T00:23:50.460Z,4.80
2023-02-06T00:26:19.678Z,4.80
2023-02-06T00:28:48.315Z,4.80
2023-02-06T00:31:16.719Z,4.80
2023-02-06T00:33:44.759Z,4.80
2023-02-06T00:36:12.711Z,4.80
2023-02-06T00:38:40.881Z,4.80
2023-02-06T00:41:08.789Z,4.80
2023-02-06T00:43:38.410Z,4.90
2023-02-06T00:46:06.586Z,4.80
2023-02-06T00:48:34.507Z,4.80
2023-02-06T00:51:02.266Z,4.80
2023-02-06T00:53:30.102Z,4.80
2023-02-06T00:55:57.927Z,4.80
2023-02-06T00:58:25.670Z,4.80
2023-02-06T01:00:54.848Z,4.70
2023-02-06T01:03:22.936Z,4.80
2023-02-06T01:05:50.790Z,4.80
2023-02-06T01:08:18.639Z,4.80
2023-02-06T01:10:46.767Z,4.70
2023-02-06T01:13:14.584Z,4.80
2023-02-06T01:15:42.465Z,4.70
2023-02-06T01:18:12.481Z,4.70
2023-02-06T01:20:41.794Z,4.70
2023-02-06T01:23:10.458Z,4.70
2023-02-06T01:25:38.728Z,4.70
2023-02-06T01:28:06.634Z,4.70
2023-02-06T01:30:34.642Z,4.70
2023-02-06T01:33:02.433Z,4.70
2023-02-06T01:35:31.575Z,4.70
2023-02-06T01:37:59.352Z,4.70
2023-02-06T01:40:27.198Z,4.70
2023-02-06T01:42:54.975Z,4.70
2023-02-06T01:45:53.801Z,4.70
2023-02-06T01:48:27.847Z,4.70
2023-02-06T01:50:58.749Z,4.60
2023-02-06T01:53:27.479Z,4.60
2023-02-06T01:55:57.569Z,4.60
2023-02-06T01:58:29.669Z,4.60
2023-02-06T02:00:58.481Z,4.60
2023-02-06T02:03:27.404Z,4.60
2023-02-06T02:06:00.834Z,4.60
2023-02-06T02:08:33.757Z,4.60
2023-02-06T02:11:04.200Z,4.60
2023-02-06T02:13:34.520Z,4.60
2023-02-06T02:16:12.585Z,4.60
2023-02-06T02:18:53.489Z,4.60
2023-02-06T02:22:00.825Z,4.60
2023-02-06T02:24:58.196Z,4.60
2023-02-06T02:27:52.741Z,4.60
2023-02-06T02:30:47.780Z,4.60
2023-02-06T02:33:37.543Z,4.60
2023-02-06T02:36:14.919Z,4.50
2023-02-06T02:38:52.845Z,4.60
2023-02-06T02:41:26.940Z,4.60
2023-02-06T02:43:59.273Z,4.50
2023-02-06T02:46:31.990Z,4.50
2023-02-06T02:49:05.162Z,4.50
2023-02-06T02:51:34.978Z,4.50
2023-02-06T02:54:03.081Z,4.50
2023-02-06T02:56:33.436Z,4.40
2023-02-06T02:59:06.049Z,4.40
2023-02-06T03:01:41.646Z,4.40
2023-02-06T03:04:15.091Z,4.40
2023-02-06T03:06:58.456Z,4.40
2023-02-06T03:09:37.797Z,4.40
2023-02-06T03:12:13.653Z,4.40
2023-02-06T03:14:47.072Z,4.40
2023-02-06T03:17:20.417Z,4.40
2023-02-06T03:19:52.689Z,4.40
2023-02-06T03:22:22.735Z,4.40
2023-02-06T03:24:51.948Z,4.40
2023-02-06T03:27:21.707Z,4.40
2023-02-06T03:29:51.913Z,4.40
2023-02-06T03:32:25.904Z,4.40
2023-02-06T03:34:59.790Z,4.40
2023-02-06T03:37:30.186Z,4.40
2023-02-06T03:40:01.563Z,4.40
2023-02-06T03:42:31.872Z,4.40
2023-02-06T03:45:06.853Z,4.40
2023-02-06T03:47:38.538Z,4.40
2023-02-06T03:50:10.326Z,4.40
2023-02-06T03:52:44.475Z,4.40
2023-02-06T03:55:15.568Z,4.40
2023-02-06T03:57:47.493Z,4.40
2023-02-06T04:00:16.247Z,4.40
2023-02-06T04:02:46.309Z,4.40
2023-02-06T04:05:14.410Z,4.40
2023-02-06T04:07:43.669Z,4.40
2023-02-06T04:10:11.669Z,4.40
2023-02-06T04:12:39.765Z,4.40
2023-02-06T04:15:08.225Z,4.40
2023-02-06T04:17:53.503Z,4.30
2023-02-06T04:20:23.850Z,4.30
2023-02-06T04:22:53.008Z,4.30
2023-02-06T04:25:20.840Z,4.20
2023-02-06T04:27:48.727Z,4.20
2023-02-06T04:30:17.896Z,4.20
2023-02-06T04:32:45.750Z,4.20
2023-02-06T04:35:13.596Z,4.20
2023-02-06T04:37:41.454Z,4.20
2023-02-06T04:40:12.071Z,4.10
2023-02-06T04:42:39.889Z,4.10
2023-02-06T04:45:08.634Z,4.10
2023-02-06T04:47:36.778Z,4.00
2023-02-06T04:50:04.877Z,4.00
2023-02-06T04:52:32.707Z,3.90
2023-02-06T04:55:00.467Z,3.90
2023-02-06T04:57:29.646Z,3.90
2023-02-06T04:59:57.486Z,3.90
2023-02-06T05:02:25.404Z,4.00
2023-02-06T05:04:53.354Z,4.00
2023-02-06T05:07:21.328Z,4.00
2023-02-06T05:09:49.107Z,4.00
2023-02-06T05:12:16.869Z,4.00
2023-02-06T05:14:46.038Z,3.90
2023-02-06T05:17:13.876Z,4.00
2023-02-06T05:19:41.706Z,4.00
2023-02-06T05:22:09.640Z,3.90
2023-02-06T05:24:37.374Z,4.00
2023-02-06T05:27:05.346Z,3.90
2023-02-06T05:29:33.128Z,4.00
2023-02-06T05:32:02.312Z,3.90
2023-02-06T05:34:30.142Z,3.90
2023-02-06T05:36:57.925Z,3.90
2023-02-06T05:39:25.890Z,3.90
2023-02-06T05:41:53.860Z,3.90
2023-02-06T05:44:21.642Z,3.90
2023-02-06T05:46:49.451Z,3.90
2023-02-06T05:49:18.793Z,3.80
2023-02-06T05:51:46.555Z,3.80
2023-02-06T05:54:16.894Z,3.80
2023-02-06T05:56:44.824Z,3.80
2023-02-06T05:59:12.845Z,3.80
2023-02-06T06:01:40.723Z,3.80
2023-02-06T06:04:08.845Z,3.70
2023-02-06T06:06:38.067Z,3.70
2023-02-06T06:09:05.906Z,3.70
2023-02-06T06:11:34.484Z,3.70
2023-02-06T06:14:02.310Z,3.60
2023-02-06T06:16:30.267Z,3.60
2023-02-06T06:18:58.350Z,3.60
2023-02-06T06:21:26.112Z,3.60
2023-02-06T06:23:55.264Z,3.60
2023-02-06T06:26:23.047Z,3.60
2023-02-06T06:28:50.807Z,3.60
2023-02-06T06:31:18.736Z,3.60
2023-02-06T06:33:46.794Z,3.60
2023-02-06T06:36:14.969Z,3.60
2023-02-06T06:38:42.837Z,3.60
2023-02-06T06:41:12.183Z,3.50
2023-02-06T06:43:40.799Z,3.50
2023-02-06T06:46:08.797Z,3.50
2023-02-06T06:48:38.239Z,3.60
2023-02-06T06:51:06.633Z,3.50
2023-02-06T06:53:41.845Z,3.50
2023-02-06T06:56:14.306Z,3.50
2023-02-06T06:58:42.929Z,3.50
2023-02-06T07:01:10.846Z,3.50
2023-02-06T07:03:39.302Z,3.50
2023-02-06T07:06:07.411Z,3.50
2023-02-06T07:08:40.469Z,3.40
2023-02-06T07:11:08.685Z,3.40
2023-02-06T07:13:38.704Z,3.40
2023-02-06T07:16:07.033Z,3.40
2023-02-06T07:18:35.356Z,3.40
2023-02-06T07:21:04.110Z,3.40
2023-02-06T07:23:31.870Z,3.40
2023-02-06T07:26:02.270Z,3.40
2023-02-06T07:28:30.383Z,3.40
2023-02-06T07:31:02.769Z,3.40
2023-02-06T07:33:30.885Z,3.40
2023-02-06T07:35:59.039Z,3.40
2023-02-06T07:38:27.276Z,3.40
2023-02-06T07:40:55.050Z,3.40
2023-02-06T07:43:22.871Z,3.40
2023-02-06T07:45:50.666Z,3.40
2023-02-06T07:48:19.871Z,3.40
2023-02-06T07:50:47.750Z,3.40
2023-02-06T07:53:15.582Z,3.50
2023-02-06T07:55:43.407Z,3.50
2023-02-06T07:58:12.655Z,3.40
2023-02-06T08:00:40.904Z,3.50
2023-02-06T08:03:10.578Z,3.40
2023-02-06T08:05:45.571Z,3.40
2023-02-06T08:08:13.387Z,3.40
2023-02-06T08:10:41.247Z,3.30
2023-02-06T08:13:09.080Z,3.30
2023-02-06T08:15:37.278Z,3.30
2023-02-06T08:18:05.423Z,3.30
2023-02-06T08:20:33.288Z,3.30
2023-02-06T08:23:02.549Z,3.30
2023-02-06T08:25:30.493Z,3.40
2023-02-06T08:27:58.369Z,3.40
2023-02-06T08:30:26.288Z,3.40
2023-02-06T08:32:54.119Z,3.40
2023-02-06T08:35:21.919Z,3.40
2023-02-06T08:37:49.704Z,3.40
2023-02-06T08:40:21.058Z,3.40
2023-02-06T08:42:51.959Z,3.40
2023-02-06T08:45:19.842Z,3.30
2023-02-06T08:47:47.731Z,3.30
2023-02-06T08:50:15.805Z,3.30
2023-02-06T08:52:43.584Z,3.30
2023-02-06T08:55:11.414Z,3.30
2023-02-06T08:57:40.646Z,3.30
2023-02-06T09:00:10.075Z,3.30
2023-02-06T09:02:38.049Z,3.30
2023-02-06T09:05:06.481Z,3.30
2023-02-06T09:07:34.491Z,3.30
2023-02-06T09:10:02.373Z,3.20
2023-02-06T09:12:30.280Z,3.30
2023-02-06T09:14:59.520Z,3.30
2023-02-06T09:17:31.398Z,3.30
2023-02-06T09:19:59.664Z,3.30
2023-02-06T09:22:27.500Z,3.30
2023-02-06T09:24:55.448Z,3.30
2023-02-06T09:27:23.238Z,3.30
2023-02-06T09:29:51.083Z,3.30
2023-02-06T09:32:20.302Z,3.30
2023-02-06T09:34:49.102Z,3.30
2023-02-06T09:37:17.102Z,3.40
2023-02-06T09:39:45.027Z,3.40
2023-02-06T09:42:18.701Z,3.40
2023-02-06T09:44:51.150Z,3.40
2023-02-06T09:47:26.479Z,3.40
2023-02-06T09:49:58.572Z,3.40
2023-02-06T09:52:47.931Z,3.40
2023-02-06T09:55:23.321Z,3.40
2023-02-06T09:57:58.413Z,3.40
2023-02-06T10:00:38.038Z,3.40
2023-02-06T10:03:29.627Z,3.40
2023-02-06T10:06:07.634Z,3.40
2023-02-06T10:08:39.695Z,3.50
2023-02-06T10:11:14.564Z,3.50
2023-02-06T10:13:49.624Z,3.50
2023-02-06T10:16:33.451Z,3.50
2023-02-06T10:19:09.527Z,3.50
2023-02-06T10:21:42.042Z,3.50
2023-02-06T10:24:18.008Z,3.50
2023-02-06T10:26:47.900Z,3.50
2023-02-06T10:29:22.467Z,3.50
2023-02-06T10:32:00.564Z,3.50
2023-02-06T10:34:47.441Z,3.50
2023-02-06T10:37:28.454Z,3.60
2023-02-06T10:40:07.391Z,3.60
2023-02-06T10:42:47.772Z,3.50
2023-02-06T10:45:24.752Z,3.60
2023-02-06T10:47:56.709Z,3.60
2023-02-06T10:50:29.562Z,3.60
2023-02-06T10:53:00.697Z,3.60
2023-02-06T10:55:29.723Z,3.60
2023-02-06T10:58:05.144Z,3.60
2023-02-06T11:00:33.515Z,3.60
2023-02-06T11:03:08.205Z,3.70
2023-02-06T11:05:38.345Z,3.70
2023-02-06T11:08:12.314Z,3.70
2023-02-06T11:10:40.907Z,3.70
2023-02-06T11:13:14.243Z,3.70
2023-02-06T11:15:48.803Z,3.70
2023-02-06T11:18:21.655Z,3.70
2023-02-06T11:20:53.734Z,3.80
2023-02-06T11:23:25.489Z,3.80
2023-02-06T11:26:05.277Z,3.80
2023-02-06T11:28:35.046Z,3.80
2023-02-06T11:31:06.066Z,3.80
2023-02-06T11:33:40.620Z,3.80
2023-02-06T11:36:24.408Z,3.80
2023-02-06T11:38:57.796Z,3.80
2023-02-06T11:41:26.252Z,3.90
2023-02-06T11:44:01.545Z,3.90
2023-02-06T11:46:32.313Z,3.90
2023-02-06T11:49:25.636Z,3.90
2023-02-06T11:51:56.725Z,3.90
2023-02-06T11:54:28.824Z,3.90
2023-02-06T11:56:59.338Z,3.90
2023-02-06T11:59:27.454Z,3.90
2023-02-06T12:01:55.576Z,3.90
2023-02-06T12:04:26.642Z,3.90
2023-02-06T12:07:00.099Z,4.00
2023-02-06T12:09:28.730Z,4.00
2023-02-06T12:12:01.445Z,4.00
2023-02-06T12:14:36.808Z,4.00
2023-02-06T12:17:10.860Z,4.00
2023-02-06T12:19:48.326Z,4.00
2023-02-06T12:22:22.126Z,4.00
2023-02-06T12:24:52.456Z,4.00
2023-02-06T12:27:25.759Z,4.10
2023-02-06T12:29:59.710Z,4.10
2023-02-06T12:32:32.546Z,4.10
2023-02-06T12:35:05.511Z,4.20
2023-02-06T12:37:42.604Z,4.10
2023-02-06T12:40:20.360Z,4.20
2023-02-06T12:42:57.009Z,4.20
2023-02-06T12:45:36.815Z,4.20
2023-02-06T12:48:13.481Z,4.20
2023-02-06T12:50:46.106Z,4.20
2023-02-06T12:53:21.404Z,4.30
2023-02-06T12:55:54.635Z,4.30
2023-02-06T12:58:28.123Z,4.30
2023-02-06T13:01:31.632Z,4.30
2023-02-06T13:04:04.262Z,4.40
2023-02-06T13:06:39.804Z,4.40
2023-02-06T13:09:09.898Z,4.40
2023-02-06T13:11:42.504Z,4.50
2023-02-06T13:14:20.412Z,4.50
2023-02-06T13:16:54.921Z,4.60
2023-02-06T13:19:30.302Z,4.60
2023-02-06T13:22:24.224Z,4.60
2023-02-06T13:24:53.382Z,4.60
2023-02-06T13:27:25.530Z,4.60
2023-02-06T13:29:54.722Z,4.60
2023-02-06T13:32:53.376Z,4.60
2023-02-06T13:35:25.308Z,4.60
2023-02-06T13:38:12.192Z,4.70
2023-02-06T13:40:41.430Z,4.70
2023-02-06T13:43:18.481Z,4.70
2023-02-06T13:45:50.542Z,4.70
2023-02-06T13:49:02.499Z,4.70
2023-02-06T13:51:48.330Z,4.70
2023-02-06T13:54:38.529Z,4.80
2023-02-06T13:57:32.428Z,4.80
2023-02-06T14:00:03.960Z,4.80
2023-02-06T14:02:41.491Z,4.80
2023-02-06T14:05:14.083Z,4.80
2023-02-06T14:07:58.329Z,4.90
2023-02-06T14:11:09.571Z,4.90
2023-02-06T14:13:55.622Z,4.90
2023-02-06T14:16:38.203Z,4.90
2023-02-06T14:19:13.716Z,4.90
2023-02-06T14:21:53.640Z,4.90
2023-02-06T14:24:46.446Z,4.90
2023-02-06T14:27:29.581Z,4.80
2023-02-06T14:30:07.158Z,4.90
2023-02-06T14:32:43.488Z,4.90
2023-02-06T14:35:35.769Z,5.00
2023-02-06T14:38:21.511Z,5.00
2023-02-06T14:40:52.666Z,5.00
2023-02-06T14:43:22.105Z,5.00
2023-02-06T14:46:06.294Z,5.00
2023-02-06T14:48:41.057Z,5.10
2023-02-06T14:51:18.669Z,5.10
2023-02-06T14:53:53.619Z,5.10
2023-02-06T14:56:27.795Z,5.00
2023-02-06T14:58:55.896Z,5.10
2023-02-06T15:01:27.746Z,5.10
2023-02-06T15:04:11.834Z,5.10
2023-02-06T15:06:42.316Z,5.10
2023-02-06T15:09:24.669Z,5.10
2023-02-06T15:11:54.072Z,5.10
2023-02-06T15:14:23.896Z,5.20
2023-02-06T15:16:56.716Z,5.20
2023-02-06T15:19:26.725Z,5.20
2023-02-06T15:22:00.454Z,5.20
2023-02-06T15:24:53.711Z,5.20
2023-02-06T15:27:28.982Z,5.20
2023-02-06T15:29:57.988Z,5.20
2023-02-06T15:32:33.207Z,5.20
2023-02-06T15:35:02.574Z,5.20
2023-02-06T15:37:32.538Z,5.20
2023-02-06T15:40:06.876Z,5.20
2023-02-06T15:42:35.045Z,5.20
2023-02-06T15:45:03.242Z,5.20
2023-02-06T15:47:32.669Z,5.20
2023-02-06T15:50:00.981Z,5.20
2023-02-06T15:52:39.446Z,5.10
2023-02-06T15:55:07.750Z,5.10
2023-02-06T15:57:40.088Z,5.10
2023-02-06T16:00:23.349Z,5.10
2023-02-06T16:02:55.560Z,5.10
2023-02-06T16:05:32.581Z,5.10
2023-02-06T16:08:02.645Z,5.10
2023-02-06T16:10:32.088Z,5.00
2023-02-06T16:13:01.814Z,5.00
2023-02-06T16:15:33.008Z,5.00
2023-02-06T16:18:02.930Z,5.00
2023-02-06T16:20:39.648Z,5.00
2023-02-06T16:23:22.872Z,5.00
2023-02-06T16:26:01.263Z,5.00
2023-02-06T16:28:29.200Z,5.00
2023-02-06T16:30:59.399Z,5.00
2023-02-06T16:33:34.081Z,5.00
2023-02-06T16:36:02.200Z,4.90
2023-02-06T16:38:30.142Z,4.90
2023-02-06T16:40:58.411Z,4.90
2023-02-06T16:43:28.195Z,4.90
2023-02-06T16:45:56.204Z,4.90
2023-02-06T16:48:24.106Z,4.90
2023-02-06T16:50:53.368Z,4.90
2023-02-06T16:53:23.725Z,4.90
2023-02-06T16:55:52.359Z,4.90
2023-02-06T16:58:23.455Z,4.90
2023-02-06T17:00:52.045Z,4.90
2023-02-06T17:03:20.044Z,4.90
2023-02-06T17:05:50.065Z,4.80
2023-02-06T17:08:21.827Z,4.80
2023-02-06T17:10:49.954Z,4.80
2023-02-06T17:13:19.489Z,4.80
2023-02-06T17:15:48.338Z,4.80
2023-02-06T17:18:18.239Z,4.80
2023-02-06T17:20:48.641Z,4.80
2023-02-06T17:23:16.986Z,4.80
2023-02-06T17:25:46.851Z,4.80
2023-02-06T17:28:17.039Z,4.70
2023-02-06T17:30:45.660Z,4.80
2023-02-06T17:33:13.784Z,4.70
2023-02-06T17:35:41.693Z,4.70
2023-02-06T17:38:10.737Z,4.60
2023-02-06T17:40:40.967Z,4.60
2023-02-06T17:43:10.371Z,4.60
2023-02-06T17:45:39.660Z,4.60
2023-02-06T17:48:08.336Z,4.60
2023-02-06T17:50:37.374Z,4.60
2023-02-06T17:53:07.028Z,4.50
2023-02-06T17:55:36.575Z,4.50
2023-02-06T17:58:04.954Z,4.50
2023-02-06T18:00:34.883Z,4.50
2023-02-06T18:03:05.140Z,4.50
2023-02-06T18:05:33.450Z,4.50
2023-02-06T18:08:01.330Z,4.50
2023-02-06T18:10:29.316Z,4.40
2023-02-06T18:12:57.165Z,4.40
2023-02-06T18:15:25.126Z,4.40
2023-02-06T18:17:54.863Z,4.40
2023-02-06T18:20:22.896Z,4.40
2023-02-06T18:22:50.789Z,4.30
2023-02-06T18:25:18.885Z,4.30
2023-02-06T18:27:46.782Z,4.30
2023-02-06T18:30:17.120Z,4.30
2023-02-06T18:32:44.989Z,4.30
2023-02-06T18:35:16.322Z,4.30
2023-02-06T18:37:44.274Z,4.30
2023-02-06T18:40:13.155Z,4.20
2023-02-06T18:42:55.918Z,4.20
2023-02-06T18:45:26.369Z,4.20
2023-02-06T18:47:55.459Z,4.20
2023-02-06T18:50:24.688Z,4.20
2023-02-06T18:52:52.777Z,4.20
2023-02-06T18:55:22.108Z,4.20
2023-02-06T18:57:50.613Z,4.20
2023-02-06T19:00:21.187Z,4.20
2023-02-06T19:02:49.392Z,4.20
2023-02-06T19:05:17.577Z,4.20
2023-02-06T19:07:51.328Z,4.10
2023-02-06T19:10:20.652Z,4.10
2023-02-06T19:12:48.826Z,4.10
2023-02-06T19:15:17.052Z,4.10
2023-02-06T19:17:44.944Z,4.10
2023-02-06T19:20:13.522Z,4.00
2023-02-06T19:22:41.351Z,4.00
2023-02-06T19:25:14.438Z,4.00
2023-02-06T19:27:42.677Z,4.00
2023-02-06T19:30:12.930Z,3.90
2023-02-06T19:32:40.938Z,3.90
2023-02-06T19:35:09.149Z,3.80
2023-02-06T19:37:37.232Z,3.80
2023-02-06T19:40:05.488Z,3.80
2023-02-06T19:42:34.961Z,3.70
2023-02-06T19:45:04.091Z,3.70
2023-02-06T19:47:32.008Z,3.70
2023-02-06T19:49:59.871Z,3.70
2023-02-06T19:52:28.509Z,3.70
2023-02-06T19:54:56.460Z,3.60
2023-02-06T19:57:24.292Z,3.70
2023-02-06T19:59:53.580Z,3.60
2023-02-06T20:02:21.387Z,3.60
2023-02-06T20:04:49.290Z,3.60
2023-02-06T20:07:17.151Z,3.60
2023-02-06T20:09:44.992Z,3.60
2023-02-06T20:12:13.425Z,3.50
2023-02-06T20:14:41.264Z,3.50
2023-02-06T20:17:10.551Z,3.50
2023-02-06T20:19:38.432Z,3.50
2023-02-06T20:22:06.775Z,3.50
2023-02-06T20:24:34.837Z,3.50
2023-02-06T20:27:05.664Z,3.40
2023-02-06T20:29:35.647Z,3.40
2023-02-06T20:32:05.450Z,3.40
2023-02-06T20:34:34.914Z,3.40
2023-02-06T20:37:02.768Z,3.40
2023-02-06T20:39:31.915Z,3.40
2023-02-06T20:42:00.009Z,3.40
2023-02-06T20:44:28.620Z,3.40
2023-02-06T20:46:56.579Z,3.40
2023-02-06T20:49:26.535Z,3.40
2023-02-06T20:51:55.834Z,3.40
2023-02-06T20:54:24.808Z,3.30
2023-02-06T20:56:52.726Z,3.30
2023-02-06T20:59:21.556Z,3.30
2023-02-06T21:01:49.578Z,3.40
2023-02-06T21:04:19.008Z,3.30
2023-02-06T21:06:47.869Z,3.30
2023-02-06T21:09:17.250Z,3.30
2023-02-06T21:11:47.859Z,3.30
2023-02-06T21:14:16.216Z,3.30
2023-02-06T21:16:44.262Z,3.30
2023-02-06T21:19:14.382Z,3.30
2023-02-06T21:21:45.578Z,3.30
2023-02-06T21:24:14.327Z,3.20
2023-02-06T21:26:44.065Z,3.30
2023-02-06T21:29:13.815Z,3.20
2023-02-06T21:31:42.673Z,3.20
2023-02-06T21:34:14.728Z,3.20
2023-02-06T21:36:43.690Z,3.20
2023-02-06T21:39:15.351Z,3.20
2023-02-06T21:41:44.870Z,3.20
2023-02-06T21:44:12.650Z,3.20
2023-02-06T21:46:40.438Z,3.20
2023-02-06T21:49:11.465Z,3.10
2023-02-06T21:51:39.772Z,3.10
2023-02-06T21:54:07.633Z,3.10
2023-02-06T21:56:38.021Z,3.10
2023-02-06T21:59:08.100Z,3.10
2023-02-06T22:01:38.255Z,3.10
2023-02-06T22:04:06.181Z,3.10
2023-02-06T22:06:36.742Z,3.10
2023-02-06T22:09:07.589Z,3.10
2023-02-06T22:11:37.360Z,3.10
2023-02-06T22:14:09.198Z,3.10
2023-02-06T22:16:37.187Z,3.10
2023-02-06T22:19:05.503Z,3.10
2023-02-06T22:21:34.879Z,3.10
2023-02-06T22:24:06.740Z,3.00
2023-02-06T22:26:43.400Z,3.00
2023-02-06T22:29:15.723Z,3.00
2023-02-06T22:31:44.758Z,3.00
2023-02-06T22:34:16.750Z,3.00
2023-02-06T22:36:45.422Z,3.00
2023-02-06T22:39:15.242Z,3.00
2023-02-06T22:41:45.096Z,3.00
2023-02-06T22:44:16.219Z,3.00
2023-02-06T22:46:45.027Z,3.00
2023-02-06T22:49:12.911Z,3.00
2023-02-06T22:51:41.864Z,3.00
2023-02-06T22:54:10.279Z,3.00
2023-02-06T22:56:39.524Z,2.90
2023-02-06T22:59:10.258Z,2.90
2023-02-06T23:01:42.114Z,2.90
2023-02-06T23:04:14.398Z,2.90
2023-02-06T23:06:43.092Z,2.90
2023-02-06T23:09:14.753Z,2.90
2023-02-06T23:11:42.847Z,2.90
2023-02-06T23:14:13.459Z,2.90
2023-02-06T23:16:43.671Z,2.90
2023-02-06T23:19:12.751Z,2.80
2023-02-06T23:21:42.115Z,2.90
2023-02-06T23:24:11.563Z,2.90
2023-02-06T23:26:41.399Z,2.80
2023-02-06T23:29:10.833Z,2.80
2023-02-06T23:31:38.772Z,2.80
2023-02-06T23:34:07.979Z,2.80
2023-02-06T23:36:43.424Z,2.80
2023-02-06T23:39:11.932Z,2.80
2023-02-06T23:41:40.520Z,2.70
2023-02-06T23:44:09.204Z,2.70
2023-02-06T23:46:39.046Z,2.70
2023-02-06T23:49:09.010Z,2.70
2023-02-06T23:51:37.859Z,2.70
2023-02-06T23:54:06.921Z,2.60
2023-02-06T23:56:35.761Z,2.60
2023-02-06T23:59:05.015Z,2.60
